首页
METAR-TAF:

METAR-TAF

机场 :

蘇恰瓦, 罗马尼亚

纬度: 47-39N, 经度: 026-15E, 海拔: 351米

当前天气观测

该预报发布于11分钟前的20:00 UTC
风速9节,风向南转西南
温度 5°C
湿度 70%
气压 1004 hPa
能见度10公里或以上
1500米以下无云,无积雨云

METAR: LRSV 282000Z 20009KT CAVOK 05/M00 Q1004

时间: 22:11 (20:11 UTC)

预报

该预报发布于3小时和11分钟前的17:00 UTC
预报有效从28日的 18点(UTC)到 29日的 03点(UTC)
风速7节,风向南转西南
能见度10公里或以上
多云层高于3500英尺
短暂存在
从 28日的 18点(UTC)到 28日的 20点(UTC)
能見度: 5000
多云层高于1500英尺
多云层高于3000英尺
小雨, 轻雾
短暂存在
从 29日的 00点(UTC)到 29日的 03点(UTC)
能見度: 5000
多云层高于1500英尺
阴天层高于2500英尺
小雨, 轻雾

TAF: LRSV 281700Z 2818/2903 21007KT 9999 BKN035 TEMPO 2818/2820 5000 -RA BR BKN015 BKN030 TEMPO 2900/2903 5000 -RA BR BKN015 OVC025

超过4000个机场的气象观测和天气预报(METAR&TAF报告)。

可查询的气象台以黄色和红色小点在地图上表示。

将鼠标移到小点上方,可查看气象台名称。

然后点击查看天气观测和预报。

如需切换地图:点击带黑十字的绿色按钮放大地图;点击带横线的绿色按钮缩小地图;或者点击绿色箭头查看邻近地区的地图。


METAR-TAF: